createdAt,value
2019-03-24T00:00:54.172Z,43.40
2019-03-24T00:01:58.413Z,43.15
2019-03-24T00:03:02.123Z,43.33
2019-03-24T00:04:05.857Z,43.33
2019-03-24T00:05:09.699Z,42.68
2019-03-24T00:06:13.329Z,42.77
2019-03-24T00:07:16.993Z,43.04
2019-03-24T00:08:20.625Z,43.04
2019-03-24T00:09:24.258Z,42.88
2019-03-24T00:10:27.889Z,42.88
2019-03-24T00:11:31.379Z,43.17
2019-03-24T00:12:35.042Z,43.00
2019-03-24T00:13:38.684Z,43.10
2019-03-24T00:14:42.322Z,43.10
2019-03-24T00:15:45.961Z,42.88
2019-03-24T00:16:49.605Z,42.88
2019-03-24T00:17:53.263Z,43.17
2019-03-24T00:18:56.895Z,43.06
2019-03-24T00:20:00.531Z,43.06
2019-03-24T00:21:04.166Z,43.34
2019-03-24T00:22:07.803Z,43.38
2019-03-24T00:23:11.471Z,43.66
2019-03-24T00:24:15.100Z,43.66
2019-03-24T00:25:18.804Z,43.54
2019-03-24T00:26:23.495Z,43.54
2019-03-24T00:27:27.255Z,44.11
2019-03-24T00:28:30.924Z,44.11
2019-03-24T00:29:34.565Z,44.13
2019-03-24T00:30:38.192Z,44.13
2019-03-24T00:31:41.825Z,44.32
2019-03-24T00:32:45.460Z,44.32
2019-03-24T00:33:49.116Z,44.64
2019-03-24T00:34:53.132Z,44.64
2019-03-24T00:35:56.764Z,44.31
2019-03-24T00:37:00.401Z,44.25
2019-03-24T00:38:04.028Z,44.45
2019-03-24T00:39:07.971Z,45.03
2019-03-24T00:40:11.715Z,44.86
2019-03-24T00:41:15.374Z,44.73
2019-03-24T00:42:18.895Z,44.73
2019-03-24T00:43:22.549Z,44.62
2019-03-24T00:44:26.210Z,44.62
2019-03-24T00:45:36.837Z,44.87
2019-03-24T00:46:35.208Z,45.36
2019-03-24T00:47:38.836Z,45.57
2019-03-24T00:48:42.473Z,45.13
2019-03-24T00:49:46.532Z,45.13
2019-03-24T00:50:50.171Z,45.02
2019-03-24T00:51:53.801Z,45.66
2019-03-24T00:52:57.437Z,44.51
2019-03-24T00:54:01.063Z,44.51
2019-03-24T00:55:07.295Z,44.92
2019-03-24T00:56:10.931Z,45.49
2019-03-24T00:57:14.561Z,45.49
2019-03-24T00:58:18.131Z,45.57
2019-03-24T00:59:21.757Z,45.46
2019-03-24T01:00:42.570Z,45.82
2019-03-24T01:01:46.195Z,45.94
2019-03-24T01:02:49.842Z,45.51
2019-03-24T01:03:54.294Z,45.51
2019-03-24T01:04:57.932Z,45.31
2019-03-24T01:06:01.938Z,45.31
2019-03-24T01:07:05.850Z,45.54
2019-03-24T01:08:09.650Z,45.54
2019-03-24T01:09:13.288Z,46.01
2019-03-24T01:10:16.931Z,45.72
2019-03-24T01:11:20.613Z,46.03
2019-03-24T01:12:24.240Z,46.03
2019-03-24T01:13:27.863Z,46.54
2019-03-24T01:14:31.498Z,46.40
2019-03-24T01:15:35.130Z,45.94
2019-03-24T01:16:38.792Z,47.29
2019-03-24T01:17:42.444Z,47.29
2019-03-24T01:18:46.145Z,46.73
2019-03-24T01:19:49.777Z,46.57
2019-03-24T01:20:53.412Z,46.43
2019-03-24T01:21:57.077Z,46.69
2019-03-24T01:23:00.701Z,47.37
2019-03-24T01:24:04.621Z,46.99
2019-03-24T01:25:08.657Z,46.92
2019-03-24T01:26:12.218Z,47.19
2019-03-24T01:27:15.904Z,47.05
2019-03-24T01:28:19.537Z,47.00
2019-03-24T01:29:23.174Z,47.52
2019-03-24T01:30:26.817Z,47.34
2019-03-24T01:31:30.384Z,47.38
2019-03-24T01:32:34.043Z,47.38
2019-03-24T01:33:37.671Z,47.37
2019-03-24T01:34:41.311Z,47.10
2019-03-24T01:35:44.938Z,47.30
2019-03-24T01:36:48.578Z,47.30
2019-03-24T01:37:52.231Z,47.44
2019-03-24T01:38:55.863Z,47.25
2019-03-24T01:39:59.498Z,47.55
2019-03-24T01:41:03.208Z,48.17
2019-03-24T01:42:06.845Z,47.73
2019-03-24T01:43:10.564Z,47.76
2019-03-24T01:44:14.285Z,48.30
2019-03-24T01:45:17.931Z,48.12
2019-03-24T01:46:21.619Z,48.38
2019-03-24T01:47:25.327Z,48.38
2019-03-24T01:48:28.975Z,48.44
2019-03-24T01:49:32.615Z,48.31
2019-03-24T01:50:36.243Z,48.22
2019-03-24T01:51:39.887Z,48.22
2019-03-24T01:52:43.516Z,48.51
2019-03-24T01:53:47.190Z,48.90
2019-03-24T01:54:50.814Z,48.86
2019-03-24T01:55:54.764Z,48.84
2019-03-24T01:56:58.398Z,48.87
2019-03-24T01:58:02.023Z,48.95
2019-03-24T01:59:05.697Z,48.95
2019-03-24T02:00:09.651Z,49.00
2019-03-24T02:01:13.262Z,49.16
2019-03-24T02:02:16.896Z,49.06
2019-03-24T02:03:20.531Z,48.52
2019-03-24T02:04:24.196Z,48.52
2019-03-24T02:05:27.839Z,49.05
2019-03-24T02:06:31.471Z,49.72
2019-03-24T02:07:35.099Z,49.79
2019-03-24T02:08:38.668Z,49.79
2019-03-24T02:09:42.342Z,49.86
2019-03-24T02:10:45.977Z,50.01
2019-03-24T02:11:50.849Z,50.01
2019-03-24T02:12:54.620Z,49.96
2019-03-24T02:13:58.249Z,50.28
2019-03-24T02:15:01.915Z,50.62
2019-03-24T02:16:09.544Z,50.62
2019-03-24T02:17:10.904Z,50.63
2019-03-24T02:18:14.547Z,50.80
2019-03-24T02:19:18.180Z,51.14
2019-03-24T02:20:22.166Z,51.20
2019-03-24T02:21:25.898Z,51.24
2019-03-24T02:22:29.523Z,51.59
2019-03-24T02:23:33.163Z,51.68
2019-03-24T02:24:36.791Z,51.81
2019-03-24T02:25:40.465Z,51.61
2019-03-24T02:26:44.102Z,51.61
2019-03-24T02:27:47.747Z,51.69
2019-03-24T02:28:51.379Z,51.81
2019-03-24T02:29:55.012Z,51.97
2019-03-24T02:30:58.670Z,52.34
2019-03-24T02:32:02.307Z,52.44
2019-03-24T02:33:05.936Z,52.67
2019-03-24T02:34:09.565Z,52.89
2019-03-24T02:35:13.201Z,52.74
2019-03-24T02:36:16.841Z,52.84
2019-03-24T02:37:20.482Z,52.87
2019-03-24T02:38:24.115Z,52.82
2019-03-24T02:39:27.733Z,52.65
2019-03-24T02:40:31.295Z,52.66
2019-03-24T02:41:34.963Z,52.61
2019-03-24T02:42:38.589Z,52.53
2019-03-24T02:43:42.228Z,52.52
2019-03-24T02:44:45.868Z,52.57
2019-03-24T02:45:49.491Z,52.63
2019-03-24T02:46:53.150Z,52.62
2019-03-24T02:47:56.778Z,52.91
2019-03-24T02:49:00.405Z,52.77
2019-03-24T02:50:04.940Z,52.74
2019-03-24T02:51:08.587Z,52.74
2019-03-24T02:52:12.181Z,52.79
2019-03-24T02:53:15.849Z,52.91
2019-03-24T02:54:19.457Z,53.27
2019-03-24T02:55:23.094Z,53.18
2019-03-24T02:56:26.712Z,53.16
2019-03-24T02:57:30.366Z,52.96
2019-03-24T02:58:33.993Z,52.85
2019-03-24T02:59:37.652Z,52.75
2019-03-24T03:00:41.251Z,52.82
2019-03-24T03:01:44.897Z,52.74
2019-03-24T03:02:48.639Z,52.74
2019-03-24T03:03:52.274Z,52.81
2019-03-24T03:04:55.908Z,53.01
2019-03-24T03:05:59.536Z,52.88
2019-03-24T03:07:03.165Z,53.08
2019-03-24T03:08:06.834Z,53.27
2019-03-24T03:09:10.472Z,53.25
2019-03-24T03:10:14.496Z,53.12
2019-03-24T03:11:18.122Z,53.20
2019-03-24T03:12:21.749Z,52.88
2019-03-24T03:13:25.409Z,52.88
2019-03-24T03:14:29.031Z,52.60
2019-03-24T03:15:32.702Z,52.54
2019-03-24T03:16:38.619Z,52.55
2019-03-24T03:17:41.817Z,52.47
2019-03-24T03:18:45.558Z,52.61
2019-03-24T03:19:49.183Z,52.81
2019-03-24T03:20:52.818Z,52.59
2019-03-24T03:21:56.458Z,52.47
2019-03-24T03:23:00.081Z,52.44
2019-03-24T03:24:03.822Z,52.61
2019-03-24T03:25:08.768Z,52.44
2019-03-24T03:26:12.825Z,52.49
2019-03-24T03:27:16.470Z,52.52
2019-03-24T03:28:20.511Z,52.50
2019-03-24T03:29:24.175Z,52.61
2019-03-24T03:30:27.805Z,52.52
2019-03-24T03:31:31.433Z,52.68
2019-03-24T03:32:35.462Z,53.28
2019-03-24T03:33:39.088Z,53.12
2019-03-24T03:34:42.745Z,52.57
2019-03-24T03:35:46.374Z,52.71
2019-03-24T03:36:50.012Z,52.56
2019-03-24T03:37:53.651Z,52.42
2019-03-24T03:38:57.270Z,52.57
2019-03-24T03:40:00.961Z,52.80
2019-03-24T03:41:04.583Z,53.02
2019-03-24T03:42:08.221Z,52.83
2019-03-24T03:43:12.024Z,52.77
2019-03-24T03:44:15.668Z,52.86
2019-03-24T03:45:22.247Z,52.86
2019-03-24T03:46:25.862Z,52.75
2019-03-24T03:47:29.634Z,52.63
2019-03-24T03:48:33.266Z,52.77
2019-03-24T03:49:37.204Z,52.90
2019-03-24T03:50:40.793Z,53.06
2019-03-24T03:51:44.422Z,53.11
2019-03-24T03:52:48.057Z,53.32
2019-03-24T03:53:51.725Z,53.38
2019-03-24T03:54:55.358Z,53.73
2019-03-24T03:55:59.027Z,53.73
2019-03-24T03:57:02.660Z,54.02
2019-03-24T03:58:06.300Z,54.24
2019-03-24T03:59:09.932Z,54.30
2019-03-24T04:00:13.677Z,54.23
2019-03-24T04:01:17.343Z,54.17
2019-03-24T04:02:20.984Z,54.06
2019-03-24T04:03:24.604Z,54.22
2019-03-24T04:04:28.168Z,54.12
2019-03-24T04:05:31.956Z,54.26
2019-03-24T04:06:35.657Z,54.90
2019-03-24T04:07:39.452Z,55.05
2019-03-24T04:08:43.092Z,55.23
2019-03-24T04:09:46.787Z,55.36
2019-03-24T04:10:50.450Z,55.05
2019-03-24T04:11:54.104Z,54.85
2019-03-24T04:12:59.371Z,55.14
2019-03-24T04:14:03.159Z,54.83
2019-03-24T04:15:08.517Z,54.88
2019-03-24T04:16:12.208Z,54.77
2019-03-24T04:17:15.900Z,55.08
2019-03-24T04:18:19.538Z,54.96
2019-03-24T04:19:23.184Z,55.16
2019-03-24T04:20:26.878Z,55.50
2019-03-24T04:21:30.503Z,55.65
2019-03-24T04:22:34.171Z,55.71
2019-03-24T04:23:37.828Z,55.47
2019-03-24T04:24:42.908Z,55.21
2019-03-24T04:25:46.547Z,54.96
2019-03-24T04:26:50.558Z,55.09
2019-03-24T04:27:54.566Z,55.42
2019-03-24T04:28:58.266Z,55.54
2019-03-24T04:30:01.906Z,55.47
2019-03-24T04:31:05.534Z,55.84
2019-03-24T04:32:10.629Z,56.06
2019-03-24T04:33:14.231Z,56.23
2019-03-24T04:34:19.333Z,55.88
2019-03-24T04:35:22.966Z,55.75
2019-03-24T04:36:26.975Z,56.04
2019-03-24T04:37:33.034Z,56.42
2019-03-24T04:38:35.917Z,56.94
2019-03-24T04:39:39.542Z,57.11
2019-03-24T04:40:43.166Z,57.79
2019-03-24T04:41:46.876Z,58.45
2019-03-24T04:42:50.522Z,60.18
2019-03-24T04:43:54.175Z,58.57
2019-03-24T04:44:57.806Z,62.26
2019-03-24T04:46:01.434Z,62.36
2019-03-24T04:47:05.070Z,61.79
2019-03-24T04:48:08.702Z,59.63
2019-03-24T04:49:12.358Z,58.95
2019-03-24T04:50:16.218Z,60.19
2019-03-24T04:51:19.854Z,59.78
2019-03-24T04:52:23.596Z,59.71
2019-03-24T04:53:27.220Z,60.06
2019-03-24T04:54:30.895Z,60.31
2019-03-24T04:55:34.533Z,61.14
2019-03-24T04:56:38.486Z,61.88
2019-03-24T04:57:42.154Z,61.64
2019-03-24T04:58:45.807Z,61.02
2019-03-24T04:59:49.472Z,61.88
2019-03-24T05:00:53.117Z,62.00
2019-03-24T05:01:57.638Z,61.45
2019-03-24T05:03:01.662Z,60.25
2019-03-24T05:04:05.659Z,59.77
2019-03-24T05:05:10.821Z,60.35
2019-03-24T05:06:15.645Z,60.42
2019-03-24T05:07:19.349Z,60.81
2019-03-24T05:08:23.783Z,60.76
2019-03-24T05:09:28.190Z,60.48
2019-03-24T05:10:31.868Z,60.52
2019-03-24T05:11:35.419Z,60.53
2019-03-24T05:12:39.042Z,60.54
2019-03-24T05:13:43.333Z,60.13
2019-03-24T05:14:56.851Z,60.20
2019-03-24T05:16:00.506Z,60.07
2019-03-24T05:17:04.142Z,59.61
2019-03-24T05:18:07.776Z,59.20
2019-03-24T05:19:11.404Z,60.84
2019-03-24T05:20:15.028Z,59.75
2019-03-24T05:21:18.703Z,58.50
2019-03-24T05:22:22.338Z,58.12
2019-03-24T05:23:25.964Z,57.64
2019-03-24T05:24:29.599Z,57.94
2019-03-24T05:25:33.297Z,58.30
2019-03-24T05:26:37.035Z,58.69
2019-03-24T05:27:40.668Z,58.47
2019-03-24T05:28:44.336Z,58.92
2019-03-24T05:29:47.927Z,58.44
2019-03-24T05:30:54.002Z,58.42
2019-03-24T05:31:57.735Z,58.85
2019-03-24T05:33:01.372Z,59.41
2019-03-24T05:34:05.010Z,58.90
2019-03-24T05:35:09.247Z,59.32
2019-03-24T05:36:12.886Z,58.73
2019-03-24T05:37:16.951Z,59.20
2019-03-24T05:38:20.577Z,59.49
2019-03-24T05:39:24.565Z,59.89
2019-03-24T05:40:28.205Z,60.13
2019-03-24T05:41:31.834Z,60.20
2019-03-24T05:42:35.513Z,59.93
2019-03-24T05:43:39.144Z,60.10
2019-03-24T05:44:42.700Z,60.20
2019-03-24T05:45:46.741Z,60.14
2019-03-24T05:46:50.368Z,60.56
2019-03-24T05:47:54.053Z,60.80
2019-03-24T05:48:57.983Z,60.81
2019-03-24T05:50:01.609Z,62.63
2019-03-24T05:51:05.293Z,61.08
2019-03-24T05:52:08.926Z,60.93
2019-03-24T05:53:12.567Z,60.93
2019-03-24T05:54:16.206Z,60.36
2019-03-24T05:55:19.837Z,61.17
2019-03-24T05:56:23.518Z,60.52
2019-03-24T05:57:27.295Z,60.29
2019-03-24T05:58:33.092Z,63.23
2019-03-24T05:59:36.722Z,61.80
2019-03-24T06:00:41.544Z,62.95
2019-03-24T06:01:45.264Z,60.91
2019-03-24T06:02:48.909Z,61.28
2019-03-24T06:03:52.539Z,60.94
2019-03-24T06:04:56.185Z,60.94
2019-03-24T06:05:59.828Z,62.17
2019-03-24T06:07:03.498Z,60.89
2019-03-24T06:08:07.137Z,61.04
2019-03-24T06:09:10.855Z,59.99
2019-03-24T06:10:14.858Z,59.81
2019-03-24T06:11:18.493Z,59.70
2019-03-24T06:12:22.239Z,60.35
2019-03-24T06:13:25.966Z,59.88
2019-03-24T06:14:29.680Z,59.78
2019-03-24T06:15:33.580Z,59.90
2019-03-24T06:16:38.058Z,59.81
2019-03-24T06:17:47.698Z,59.88
2019-03-24T06:18:47.255Z,59.54
2019-03-24T06:19:50.890Z,59.71
2019-03-24T06:20:54.520Z,59.17
2019-03-24T06:21:58.155Z,58.84
2019-03-24T06:23:01.796Z,58.97
2019-03-24T06:24:05.470Z,58.99
2019-03-24T06:25:09.500Z,58.95
2019-03-24T06:26:13.130Z,59.00
2019-03-24T06:27:16.835Z,58.71
2019-03-24T06:28:20.466Z,58.30
2019-03-24T06:29:24.152Z,58.42
2019-03-24T06:30:27.856Z,58.08
2019-03-24T06:31:31.493Z,58.27
2019-03-24T06:32:35.299Z,57.76
2019-03-24T06:33:38.933Z,57.58
2019-03-24T06:34:42.676Z,57.52
2019-03-24T06:35:46.321Z,57.34
2019-03-24T06:36:50.007Z,56.59
2019-03-24T06:37:53.630Z,56.40
2019-03-24T06:38:57.275Z,55.53
2019-03-24T06:40:00.951Z,55.24
2019-03-24T06:41:05.050Z,55.12
2019-03-24T06:42:08.667Z,55.44
2019-03-24T06:43:12.301Z,55.08
2019-03-24T06:44:16.010Z,54.50
2019-03-24T06:45:28.054Z,54.23
2019-03-24T06:46:25.428Z,54.15
2019-03-24T06:47:29.103Z,54.62
2019-03-24T06:48:32.733Z,54.51
2019-03-24T06:49:36.395Z,53.58
2019-03-24T06:50:40.073Z,53.34
2019-03-24T06:51:43.720Z,53.46
2019-03-24T06:52:47.356Z,53.46
2019-03-24T06:53:51.147Z,53.25
2019-03-24T06:54:54.779Z,53.25
2019-03-24T06:55:58.398Z,52.41
2019-03-24T06:57:02.031Z,52.40
2019-03-24T06:58:06.059Z,51.79
2019-03-24T06:59:09.702Z,51.79
2019-03-24T07:00:13.868Z,51.53
2019-03-24T07:01:17.472Z,50.84
2019-03-24T07:02:21.129Z,50.94
2019-03-24T07:03:24.781Z,51.75
2019-03-24T07:04:28.424Z,50.88
2019-03-24T07:05:32.073Z,50.88
2019-03-24T07:06:35.753Z,50.16
2019-03-24T07:07:39.393Z,49.44
2019-03-24T07:08:43.467Z,49.55
2019-03-24T07:09:47.107Z,49.55
2019-03-24T07:10:50.764Z,49.77
2019-03-24T07:11:54.400Z,49.36
2019-03-24T07:12:58.051Z,48.56
2019-03-24T07:14:01.730Z,48.56
2019-03-24T07:15:08.787Z,49.38
2019-03-24T07:16:12.427Z,48.50
2019-03-24T07:17:16.427Z,47.17
2019-03-24T07:18:20.274Z,47.15
2019-03-24T07:19:23.878Z,46.46
2019-03-24T07:20:27.517Z,46.28
2019-03-24T07:21:31.152Z,46.05
2019-03-24T07:22:34.890Z,45.56
2019-03-24T07:23:38.592Z,45.67
2019-03-24T07:24:42.307Z,45.16
2019-03-24T07:25:46.381Z,44.42
2019-03-24T07:26:50.017Z,43.80
2019-03-24T07:27:53.725Z,43.91
2019-03-24T07:28:57.465Z,43.41
2019-03-24T07:30:01.098Z,43.25
2019-03-24T07:31:04.757Z,43.10
2019-03-24T07:32:08.379Z,42.85
2019-03-24T07:33:12.151Z,42.61
2019-03-24T07:34:16.098Z,42.01
2019-03-24T07:35:19.741Z,41.66
2019-03-24T07:36:23.374Z,41.47
2019-03-24T07:37:27.015Z,41.39
2019-03-24T07:38:30.698Z,41.72
2019-03-24T07:39:34.331Z,42.37
2019-03-24T07:40:38.047Z,42.25
2019-03-24T07:41:41.704Z,42.91
2019-03-24T07:42:45.416Z,40.95
2019-03-24T07:43:49.048Z,40.32
2019-03-24T07:44:52.782Z,39.93
2019-03-24T07:45:57.886Z,39.31
2019-03-24T07:47:02.977Z,38.64
2019-03-24T07:48:06.622Z,38.58
2019-03-24T07:49:10.311Z,38.28
2019-03-24T07:50:14.257Z,38.39
2019-03-24T07:51:17.948Z,36.90
2019-03-24T07:52:21.593Z,36.33
2019-03-24T07:53:25.245Z,36.35
2019-03-24T07:54:28.888Z,36.24
2019-03-24T07:55:32.524Z,36.10
2019-03-24T07:56:36.206Z,35.83
2019-03-24T07:57:39.856Z,35.59
2019-03-24T07:58:45.841Z,36.00
2019-03-24T07:59:48.936Z,36.51
2019-03-24T08:00:53.503Z,36.46
2019-03-24T08:01:57.190Z,36.60
2019-03-24T08:03:01.133Z,35.93
2019-03-24T08:04:06.028Z,36.19
2019-03-24T08:05:10.101Z,35.34
2019-03-24T08:06:14.065Z,35.22
2019-03-24T08:07:17.746Z,35.08
2019-03-24T08:08:21.388Z,35.55
2019-03-24T08:09:25.229Z,35.46
2019-03-24T08:10:28.955Z,35.16
2019-03-24T08:11:32.673Z,35.09
2019-03-24T08:12:36.689Z,35.05
2019-03-24T08:13:40.465Z,34.96
2019-03-24T08:14:44.176Z,35.20
2019-03-24T08:15:47.805Z,34.65
2019-03-24T08:16:51.445Z,34.67
2019-03-24T08:17:55.082Z,34.64
2019-03-24T08:18:58.796Z,34.95
2019-03-24T08:20:02.500Z,34.49
2019-03-24T08:21:06.139Z,34.35
2019-03-24T08:22:09.780Z,33.80
2019-03-24T08:23:13.444Z,33.33
2019-03-24T08:24:17.150Z,33.17
2019-03-24T08:25:20.785Z,33.71
2019-03-24T08:26:24.478Z,33.64
2019-03-24T08:27:28.182Z,33.29
2019-03-24T08:28:31.743Z,33.78
2019-03-24T08:29:35.422Z,34.12
2019-03-24T08:30:40.232Z,33.62
2019-03-24T08:31:43.877Z,33.48
2019-03-24T08:32:47.508Z,32.94
2019-03-24T08:33:51.159Z,32.72
2019-03-24T08:34:54.862Z,31.96
2019-03-24T08:35:58.473Z,31.53
2019-03-24T08:37:02.121Z,31.93
2019-03-24T08:38:05.833Z,31.48
2019-03-24T08:39:09.886Z,31.66
2019-03-24T08:40:13.669Z,30.57
2019-03-24T08:41:17.391Z,30.37
2019-03-24T08:42:21.033Z,31.29
2019-03-24T08:43:24.696Z,31.62
2019-03-24T08:44:28.343Z,29.95
2019-03-24T08:45:32.197Z,30.48
2019-03-24T08:46:37.482Z,30.05
2019-03-24T08:47:42.804Z,30.32
2019-03-24T08:48:46.418Z,30.20
2019-03-24T08:49:50.052Z,29.69
2019-03-24T08:50:54.095Z,29.08
2019-03-24T08:51:57.732Z,28.74
2019-03-24T08:53:01.373Z,28.92
2019-03-24T08:54:05.011Z,30.19
2019-03-24T08:55:08.724Z,29.49
2019-03-24T08:56:12.410Z,28.75
2019-03-24T08:57:16.077Z,28.76
2019-03-24T08:58:19.699Z,28.77
2019-03-24T08:59:23.352Z,28.53
2019-03-24T09:00:30.830Z,27.83
2019-03-24T09:01:33.336Z,27.78
2019-03-24T09:02:37.041Z,25.94
2019-03-24T09:03:41.068Z,25.92
2019-03-24T09:04:44.807Z,27.76
2019-03-24T09:05:48.442Z,27.66
2019-03-24T09:06:52.131Z,27.07
2019-03-24T09:07:55.786Z,26.82
2019-03-24T09:08:59.423Z,26.85
2019-03-24T09:10:03.436Z,26.53
2019-03-24T09:11:07.144Z,26.63
2019-03-24T09:12:11.126Z,24.62
2019-03-24T09:13:14.764Z,24.50
2019-03-24T09:14:18.410Z,25.30
2019-03-24T09:15:22.199Z,25.38
2019-03-24T09:16:25.834Z,24.95
2019-03-24T09:17:29.552Z,23.92
2019-03-24T09:18:33.231Z,24.04
2019-03-24T09:19:36.879Z,24.12
2019-03-24T09:20:41.858Z,24.20
2019-03-24T09:21:45.848Z,22.77
2019-03-24T09:22:49.528Z,22.33
2019-03-24T09:23:53.167Z,22.06
2019-03-24T09:24:56.734Z,21.81
2019-03-24T09:26:00.812Z,21.37
2019-03-24T09:27:04.523Z,21.73
2019-03-24T09:28:09.306Z,22.50
2019-03-24T09:29:13.103Z,22.82
2019-03-24T09:30:19.690Z,22.96
2019-03-24T09:31:23.330Z,23.03
2019-03-24T09:32:26.985Z,23.00
2019-03-24T09:33:30.668Z,21.48
2019-03-24T09:34:34.315Z,22.06
2019-03-24T09:35:38.039Z,21.55
2019-03-24T09:36:41.673Z,22.47
2019-03-24T09:37:45.309Z,22.58
2019-03-24T09:38:49.004Z,22.96
2019-03-24T09:39:52.628Z,22.73
2019-03-24T09:40:56.267Z,23.58
2019-03-24T09:41:59.980Z,22.35
2019-03-24T09:43:04.813Z,21.28
2019-03-24T09:44:08.495Z,21.62
2019-03-24T09:45:12.139Z,21.73
2019-03-24T09:46:15.773Z,21.70
2019-03-24T09:47:19.409Z,21.75
2019-03-24T09:48:23.049Z,21.45
2019-03-24T09:49:26.813Z,21.54
2019-03-24T09:50:30.769Z,21.82
2019-03-24T09:51:34.434Z,21.42
2019-03-24T09:52:38.055Z,21.87
2019-03-24T09:53:41.701Z,21.50
2019-03-24T09:54:45.381Z,21.47
2019-03-24T09:55:49.017Z,21.37
2019-03-24T09:56:52.658Z,20.64
2019-03-24T09:57:56.582Z,20.76
2019-03-24T09:59:00.236Z,21.34
2019-03-24T10:00:04.422Z,21.30
2019-03-24T10:01:08.094Z,21.44
2019-03-24T10:02:11.787Z,20.96
2019-03-24T10:03:15.416Z,20.99
2019-03-24T10:04:19.171Z,21.87
2019-03-24T10:05:22.840Z,21.11
2019-03-24T10:06:26.601Z,21.40
2019-03-24T10:07:30.233Z,21.69
2019-03-24T10:08:33.945Z,21.55
2019-03-24T10:09:37.587Z,21.53
2019-03-24T10:10:41.255Z,21.00
2019-03-24T10:11:44.891Z,20.54
2019-03-24T10:12:48.537Z,20.72
2019-03-24T10:13:52.161Z,20.99
2019-03-24T10:14:55.802Z,21.31
2019-03-24T10:15:59.482Z,21.43
2019-03-24T10:17:03.121Z,22.15
2019-03-24T10:18:06.837Z,21.01
2019-03-24T10:19:14.248Z,20.83
2019-03-24T10:20:15.932Z,21.46
2019-03-24T10:21:19.691Z,21.01
2019-03-24T10:22:23.400Z,22.09
2019-03-24T10:23:27.373Z,21.66
2019-03-24T10:24:30.948Z,21.56
2019-03-24T10:25:34.661Z,21.47
2019-03-24T10:26:38.315Z,21.56
2019-03-24T10:27:41.987Z,20.37
2019-03-24T10:28:45.589Z,19.96
2019-03-24T10:29:49.211Z,20.41
2019-03-24T10:30:53.047Z,20.96
2019-03-24T10:31:56.683Z,20.64
2019-03-24T10:33:00.310Z,20.78
2019-03-24T10:34:04.029Z,20.12
2019-03-24T10:35:08.111Z,19.76
2019-03-24T10:36:11.760Z,19.26
2019-03-24T10:37:15.412Z,18.45
2019-03-24T10:38:19.068Z,17.97
2019-03-24T10:39:22.618Z,17.59
2019-03-24T10:40:28.930Z,17.79
2019-03-24T10:41:31.720Z,18.27
2019-03-24T10:42:35.474Z,18.32
2019-03-24T10:43:39.178Z,18.70
2019-03-24T10:44:42.806Z,17.88
2019-03-24T10:45:46.453Z,18.37
2019-03-24T10:46:50.095Z,18.45
2019-03-24T10:47:53.733Z,18.91
2019-03-24T10:48:57.486Z,17.70
2019-03-24T10:50:01.186Z,17.91
2019-03-24T10:51:04.870Z,17.96
2019-03-24T10:52:08.367Z,16.66
2019-03-24T10:53:12.011Z,16.11
2019-03-24T10:54:15.640Z,16.43
2019-03-24T10:55:19.279Z,16.99
2019-03-24T10:56:22.971Z,16.46
2019-03-24T10:57:26.619Z,16.58
2019-03-24T10:58:30.255Z,17.74
2019-03-24T10:59:33.899Z,16.26
2019-03-24T11:00:39.769Z,16.19
2019-03-24T11:01:43.447Z,16.67
2019-03-24T11:02:47.078Z,16.10
2019-03-24T11:03:50.775Z,16.11
2019-03-24T11:04:54.413Z,15.74
2019-03-24T11:05:58.201Z,15.78
2019-03-24T11:07:02.010Z,17.24
2019-03-24T11:08:06.033Z,16.82
2019-03-24T11:09:10.304Z,16.81
2019-03-24T11:10:14.329Z,15.76
2019-03-24T11:11:18.000Z,15.53
2019-03-24T11:12:21.850Z,15.01
2019-03-24T11:13:25.569Z,15.04
2019-03-24T11:14:29.210Z,14.13
2019-03-24T11:15:32.920Z,14.31
2019-03-24T11:16:36.529Z,13.42
2019-03-24T11:17:40.275Z,13.82
2019-03-24T11:18:43.972Z,13.97
2019-03-24T11:19:47.613Z,14.00
2019-03-24T11:20:51.354Z,14.45
2019-03-24T11:21:55.009Z,15.70
2019-03-24T11:22:58.685Z,14.38
2019-03-24T11:24:02.311Z,14.45
2019-03-24T11:25:08.342Z,15.01
2019-03-24T11:26:11.908Z,15.22
2019-03-24T11:27:15.542Z,15.07
2019-03-24T11:28:19.391Z,14.55
2019-03-24T11:29:23.671Z,14.90
2019-03-24T11:30:27.342Z,15.93
2019-03-24T11:31:31.053Z,16.03
2019-03-24T11:32:34.783Z,15.01
2019-03-24T11:33:38.421Z,14.65
2019-03-24T11:34:41.986Z,14.56
2019-03-24T11:35:45.670Z,15.62
2019-03-24T11:36:49.413Z,15.88
2019-03-24T11:37:53.044Z,16.55
2019-03-24T11:38:59.070Z,15.23
2019-03-24T11:40:02.139Z,14.25
2019-03-24T11:41:05.805Z,14.36
2019-03-24T11:42:09.558Z,14.25
2019-03-24T11:43:13.246Z,14.66
2019-03-24T11:44:16.850Z,14.22
2019-03-24T11:45:20.483Z,13.85
2019-03-24T11:46:24.369Z,13.31
2019-03-24T11:47:28.033Z,13.80
2019-03-24T11:48:31.675Z,13.45
2019-03-24T11:49:45.518Z,13.98
2019-03-24T11:50:41.313Z,14.27
2019-03-24T11:51:44.982Z,14.71
2019-03-24T11:52:48.623Z,13.73
2019-03-24T11:53:52.250Z,13.91
2019-03-24T11:54:55.889Z,14.41
2019-03-24T11:55:59.524Z,14.32
2019-03-24T11:57:03.196Z,13.79
2019-03-24T11:58:06.836Z,14.30
2019-03-24T11:59:10.575Z,14.65
2019-03-24T12:00:19.387Z,14.00
2019-03-24T12:01:23.017Z,14.53
2019-03-24T12:02:26.623Z,13.83
2019-03-24T12:03:30.258Z,13.45
2019-03-24T12:04:33.963Z,14.17
2019-03-24T12:05:38.190Z,13.82
2019-03-24T12:06:41.820Z,14.29
2019-03-24T12:07:45.502Z,14.42
2019-03-24T12:08:49.152Z,14.52
2019-03-24T12:09:52.789Z,14.08
2019-03-24T12:10:56.420Z,14.73
2019-03-24T12:12:00.063Z,14.54
2019-03-24T12:13:03.829Z,14.48
2019-03-24T12:14:07.462Z,14.30
2019-03-24T12:15:11.405Z,15.08
2019-03-24T12:16:15.199Z,14.95
2019-03-24T12:17:18.967Z,14.73
2019-03-24T12:18:22.646Z,14.30
2019-03-24T12:19:27.802Z,13.94
2019-03-24T12:20:31.461Z,13.92
2019-03-24T12:21:35.084Z,14.49
2019-03-24T12:22:38.718Z,14.04
2019-03-24T12:23:44.449Z,14.22
2019-03-24T12:24:48.094Z,14.27
2019-03-24T12:25:51.668Z,14.20
2019-03-24T12:26:55.339Z,14.09
2019-03-24T12:27:58.986Z,14.13
2019-03-24T12:29:02.688Z,14.10
2019-03-24T12:30:08.721Z,13.42
2019-03-24T12:31:12.349Z,13.77
2019-03-24T12:32:15.983Z,14.71
2019-03-24T12:33:19.631Z,14.69
2019-03-24T12:34:23.321Z,15.39
2019-03-24T12:35:26.971Z,14.51
2019-03-24T12:36:30.612Z,15.09
2019-03-24T12:37:34.299Z,15.45
2019-03-24T12:38:37.950Z,15.20
2019-03-24T12:39:41.611Z,15.76
2019-03-24T12:40:45.364Z,15.66
2019-03-24T12:41:48.983Z,15.42
2019-03-24T12:42:52.616Z,16.61
2019-03-24T12:43:56.268Z,15.02
2019-03-24T12:44:59.912Z,15.89
2019-03-24T12:46:03.563Z,15.79
2019-03-24T12:47:07.197Z,15.43
2019-03-24T12:48:10.853Z,15.77
2019-03-24T12:49:14.476Z,15.43
2019-03-24T12:50:18.153Z,15.62
2019-03-24T12:51:21.791Z,16.78
2019-03-24T12:52:25.442Z,16.20
2019-03-24T12:53:29.082Z,15.81
2019-03-24T12:54:32.802Z,15.69
2019-03-24T12:55:36.516Z,16.03
2019-03-24T12:56:40.254Z,16.10
2019-03-24T12:57:44.387Z,15.56
2019-03-24T12:58:48.031Z,15.47
2019-03-24T12:59:51.940Z,15.60
2019-03-24T13:00:57.188Z,15.33
2019-03-24T13:02:00.820Z,15.26
2019-03-24T13:03:04.834Z,15.69
2019-03-24T13:04:08.464Z,14.94
2019-03-24T13:05:13.375Z,15.25
2019-03-24T13:06:17.093Z,15.52
2019-03-24T13:07:20.787Z,15.52
2019-03-24T13:08:24.892Z,15.57
2019-03-24T13:09:28.533Z,16.13
2019-03-24T13:10:32.185Z,16.40
2019-03-24T13:11:35.966Z,16.04
2019-03-24T13:12:39.604Z,15.80
2019-03-24T13:13:43.411Z,16.44
2019-03-24T13:14:47.140Z,15.60
2019-03-24T13:15:50.927Z,15.84
2019-03-24T13:16:54.619Z,15.47
2019-03-24T13:17:58.254Z,15.43
2019-03-24T13:19:01.886Z,15.40
2019-03-24T13:20:07.805Z,15.59
2019-03-24T13:21:11.520Z,15.27
2019-03-24T13:22:15.214Z,15.62
2019-03-24T13:23:18.864Z,15.62
2019-03-24T13:24:22.939Z,15.87
2019-03-24T13:25:27.766Z,15.93
2019-03-24T13:26:31.377Z,15.99
2019-03-24T13:27:35.082Z,16.29
2019-03-24T13:28:38.658Z,17.00
2019-03-24T13:29:42.312Z,16.45
2019-03-24T13:30:45.914Z,15.80
2019-03-24T13:31:49.622Z,15.92
2019-03-24T13:32:53.328Z,16.12
2019-03-24T13:33:57.620Z,16.75
2019-03-24T13:35:01.314Z,16.44
2019-03-24T13:36:12.499Z,16.75
2019-03-24T13:37:16.139Z,17.27
2019-03-24T13:38:19.792Z,16.79
2019-03-24T13:39:23.530Z,17.27
2019-03-24T13:40:27.176Z,16.50
2019-03-24T13:41:30.911Z,16.61
2019-03-24T13:42:34.667Z,16.45